Time;durP1;ratioP1;P1;durP2;ratioP2;P2;SDS_P1;SDS_P2;PMS_P1;PMS_P2;Temp;Humidity;BMP_temperature;BMP_pressure;BME280_temperature;BME280_humidity;BME280_pressure;Samples;Min_cycle;Max_cycle;Signal;HPM_P1;HPM_P2
2022/05/31 00:00:00;;;;;;;3.55;2.40;;;10.30;99.90;;;;;;5052009;28;20502;-70
2022/05/31 00:02:26;;;;;;;3.20;2.13;;;10.40;99.90;;;;;;5034763;28;20045;-69
2022/05/31 00:04:52;;;;;;;3.72;2.55;;;10.10;99.90;;;;;;5052378;28;20043;-70
2022/05/31 00:07:19;;;;;;;3.38;2.20;;;;;;;;;;5052717;28;20041;-70
2022/05/31 00:09:45;;;;;;;5.15;2.30;;;9.90;99.90;;;;;;5067262;28;20052;-69
2022/05/31 00:12:12;;;;;;;4.10;2.85;;;10.00;99.90;;;;;;5052530;28;20072;-69
2022/05/31 00:14:39;;;;;;;2.97;2.20;;;10.10;99.90;;;;;;5067706;28;20041;-69
2022/05/31 00:17:05;;;;;;;2.88;2.67;;;10.30;99.90;;;;;;5052356;28;20037;-69
2022/05/31 00:19:31;;;;;;;4.90;2.60;;;10.00;99.90;;;;;;5017561;28;20508;-69
2022/05/31 00:22:09;;;;;;;3.38;2.50;;;10.10;99.90;;;;;;5034601;28;20128;-70
2022/05/31 00:24:39;;;;;;;3.72;2.15;;;10.00;99.90;;;;;;5018101;28;20045;-69
2022/05/31 00:27:09;;;;;;;3.72;2.50;;;10.00;99.90;;;;;;5034525;28;20097;-69
2022/05/31 00:29:35;;;;;;;2.50;2.13;;;10.10;99.90;;;;;;5033802;28;20041;-70
2022/05/31 00:32:03;;;;;;;3.38;2.67;;;10.20;99.90;;;;;;5034342;28;20144;-71
2022/05/31 00:34:31;;;;;;;4.63;2.75;;;10.10;99.90;;;;;;5033963;28;20076;-69
2022/05/31 00:36:57;;;;;;;3.65;2.60;;;10.00;99.90;;;;;;5034431;28;20395;-70
2022/05/31 00:39:23;;;;;;;3.72;2.63;;;10.10;99.90;;;;;;5033376;28;20037;-69
2022/05/31 00:42:13;;;;;;;3.92;2.40;;;10.20;99.90;;;;;;5017995;28;20102;-69
2022/05/31 00:44:39;;;;;;;2.83;2.53;;;10.10;99.90;;;;;;5067457;28;20326;-69
2022/05/31 00:47:29;;;;;;;4.47;2.60;;;9.90;99.90;;;;;;5089960;22;20056;-68
2022/05/31 00:50:12;;;;;;;3.10;2.28;;;10.00;99.90;;;;;;5091236;28;20067;-67
2022/05/31 00:52:46;;;;;;;4.10;2.33;;;9.90;99.90;;;;;;5091853;28;20415;-68
2022/05/31 00:55:24;;;;;;;2.55;2.35;;;9.90;99.90;;;;;;5073103;28;20036;-68
2022/05/31 00:58:07;;;;;;;2.85;2.15;;;9.90;99.90;;;;;;5091634;28;20074;-67
2022/05/31 01:00:35;;;;;;;;;;;10.10;99.90;;;;;;5073459;28;20044;-67
2022/05/31 01:03:00;;;;;;;3.05;1.98;;;10.00;99.90;;;;;;5057045;28;19916;-68
2022/05/31 01:05:26;;;;;;;3.78;2.20;;;10.10;99.90;;;;;;5073421;28;20036;-67
2022/05/31 01:07:52;;;;;;;3.30;2.30;;;9.80;99.90;;;;;;5091650;28;20048;-67
2022/05/31 01:10:18;;;;;;;4.18;2.92;;;9.90;99.90;;;;;;5090748;28;20075;-68
2022/05/31 01:12:46;;;;;;;4.68;2.30;;;9.90;99.90;;;;;;5091859;28;20068;-67
2022/05/31 01:15:14;;;;;;;3.50;2.28;;;9.70;99.90;;;;;;5073424;28;20082;-68
2022/05/31 01:17:42;;;;;;;5.28;2.20;;;9.80;99.90;;;;;;5073440;28;20039;-67
2022/05/31 01:20:20;;;;;;;2.67;2.05;;;9.80;99.90;;;;;;5072575;28;20075;-67
2022/05/31 01:22:53;;;;;;;2.67;2.47;;;9.80;99.90;;;;;;5090044;28;20040;-67
2022/05/31 01:25:22;;;;;;;;;;;9.80;99.90;;;;;;5091884;28;20571;-67
2022/05/31 01:28:13;;;;;;;3.60;2.20;;;9.80;99.90;;;;;;5091350;28;19963;-68
2022/05/31 01:30:50;;;;;;;3.53;2.40;;;9.90;99.90;;;;;;5072680;28;20395;-67
2022/05/31 01:33:27;;;;;;;2.50;2.30;;;9.70;99.90;;;;;;5091316;28;20055;-68
2022/05/31 01:35:53;;;;;;;3.38;2.90;;;9.80;99.90;;;;;;5091346;28;20044;-67
2022/05/31 01:38:29;;;;;;;3.22;2.20;;;9.70;99.90;;;;;;5091327;28;20374;-68
2022/05/31 01:41:03;;;;;;;3.03;2.30;;;9.70;99.90;;;;;;5089326;28;20122;-67
2022/05/31 01:43:29;;;;;;;2.50;2.30;;;9.80;99.90;;;;;;5091140;28;20406;-68
2022/05/31 01:46:19;;;;;;;2.75;2.20;;;9.60;99.90;;;;;;5072874;28;20059;-69
2022/05/31 01:48:45;;;;;;;3.88;2.33;;;9.80;99.90;;;;;;5073074;28;20040;-67
2022/05/31 01:51:12;;;;;;;3.55;2.30;;;9.80;99.90;;;;;;5072266;28;20047;-67
2022/05/31 01:53:38;;;;;;;3.22;2.67;;;9.50;99.90;;;;;;5073079;28;20048;-67
2022/05/31 01:56:05;;;;;;;3.00;2.65;;;9.50;99.90;;;;;;5072768;28;20044;-67
2022/05/31 01:58:34;;;;;;;2.47;2.08;;;9.80;99.90;;;;;;5073309;28;20501;-67
2022/05/31 02:01:04;;;;;;;2.83;2.53;;;9.60;99.90;;;;;;5090483;28;20115;-67
2022/05/31 02:03:31;;;;;;;4.22;2.60;;;9.60;99.90;;;;;;5072943;28;20036;-67
2022/05/31 02:05:57;;;;;;;5.00;2.67;;;9.80;99.90;;;;;;5091036;28;20040;-67
2022/05/31 02:08:24;;;;;;;4.05;2.78;;;9.80;99.90;;;;;;5092897;28;20055;-68
2022/05/31 02:10:50;;;;;;;3.58;2.15;;;9.70;99.90;;;;;;5075675;28;20043;-67
2022/05/31 02:13:17;;;;;;;2.88;2.28;;;9.80;99.90;;;;;;5094895;28;20036;-69
2022/05/31 02:15:44;;;;;;;4.47;2.42;;;9.80;99.90;;;;;;5094572;28;20048;-68
2022/05/31 02:18:12;;;;;;;3.47;2.60;;;9.80;99.90;;;;;;5094550;28;20536;-67
2022/05/31 02:20:38;;;;;;;3.97;2.55;;;9.90;99.90;;;;;;5093737;28;20036;-67
2022/05/31 02:23:04;;;;;;;3.38;2.45;;;9.90;99.90;;;;;;5094333;28;20472;-67
2022/05/31 02:25:30;;;;;;;6.57;2.78;;;9.90;99.90;;;;;;5076196;28;20040;-67
2022/05/31 02:27:56;;;;;;;4.88;3.05;;;9.80;99.90;;;;;;5094465;28;20428;-67
2022/05/31 02:30:22;;;;;;;4.28;2.38;;;9.90;99.90;;;;;;5093740;28;20036;-67
2022/05/31 02:32:47;;;;;;;2.85;2.35;;;9.90;99.90;;;;;;5094411;28;20518;-67
2022/05/31 02:35:13;;;;;;;4.93;2.45;;;9.90;99.90;;;;;;5076002;28;20123;-68
2022/05/31 02:37:39;;;;;;;4.05;2.30;;;9.80;99.90;;;;;;5076169;28;20036;-67
2022/05/31 02:40:06;;;;;;;3.70;2.45;;;9.80;99.90;;;;;;5093675;28;20077;-67
2022/05/31 02:42:33;;;;;;;3.17;2.70;;;9.80;99.90;;;;;;5094299;28;20032;-68
2022/05/31 02:44:58;;;;;;;2.95;2.40;;;9.90;99.90;;;;;;5075862;28;20050;-67
2022/05/31 02:47:24;;;;;;;3.08;2.50;;;9.80;99.90;;;;;;5059008;28;20040;-67
2022/05/31 02:49:49;;;;;;;3.30;2.38;;;9.90;99.90;;;;;;5074985;28;20409;-67
2022/05/31 02:52:15;;;;;;;3.65;2.38;;;9.90;99.90;;;;;;5075793;28;20040;-67
2022/05/31 02:54:41;;;;;;;7.68;2.55;;;10.00;99.90;;;;;;5093809;28;20398;-67
2022/05/31 02:57:07;;;;;;;3.72;2.30;;;9.90;99.90;;;;;;5075578;28;20043;-67
2022/05/31 02:59:33;;;;;;;3.55;2.17;;;9.90;99.90;;;;;;5093101;28;20436;-67
2022/05/31 03:01:58;;;;;;;3.00;2.33;;;9.90;99.90;;;;;;5093870;28;20035;-67
2022/05/31 03:04:24;;;;;;;5.82;2.30;;;9.80;99.90;;;;;;5093656;28;20066;-68
2022/05/31 03:06:50;;;;;;;2.80;2.45;;;10.00;99.90;;;;;;5075362;28;20492;-67
2022/05/31 03:09:16;;;;;;;3.47;2.20;;;9.90;99.90;;;;;;5093308;28;20122;-67
2022/05/31 03:11:50;;;;;;;2.95;2.65;;;9.90;99.90;;;;;;5093735;28;20036;-67
2022/05/31 03:14:36;;;;;;;5.18;2.60;;;9.90;99.90;;;;;;5075519;28;20399;-67
2022/05/31 03:17:08;;;;;;;3.53;2.45;;;9.80;99.90;;;;;;5058818;28;20482;-68
2022/05/31 03:19:40;;;;;;;4.13;2.65;;;9.90;99.90;;;;;;5074390;28;20054;-67
2022/05/31 03:22:13;;;;;;;4.05;2.63;;;9.80;99.90;;;;;;5093533;28;20036;-67
2022/05/31 03:24:43;;;;;;;7.10;2.28;;;9.90;99.90;;;;;;5093550;28;20075;-68
2022/05/31 03:27:11;;;;;;;4.03;2.30;;;10.00;99.90;;;;;;5075035;28;20051;-67
2022/05/31 03:29:42;;;;;;;5.03;2.80;;;10.00;99.90;;;;;;5074156;28;20043;-68
2022/05/31 03:32:09;;;;;;;5.57;2.33;;;9.90;99.90;;;;;;5093138;28;20044;-67
2022/05/31 03:34:34;;;;;;;2.33;2.05;;;10.00;99.90;;;;;;5074732;28;20124;-68
2022/05/31 03:37:00;;;;;;;2.92;2.58;;;10.00;99.90;;;;;;5075067;28;20111;-67
2022/05/31 03:39:25;;;;;;;4.25;2.60;;;9.90;99.90;;;;;;5074299;28;20050;-68
2022/05/31 03:41:51;;;;;;;3.92;2.75;;;9.90;99.90;;;;;;5092900;28;20036;-67
2022/05/31 03:44:17;;;;;;;4.60;2.58;;;9.90;99.90;;;;;;5092852;28;20127;-67
2022/05/31 03:46:42;;;;;;;4.60;3.00;;;10.00;99.90;;;;;;5074541;28;20122;-67
2022/05/31 03:49:09;;;;;;;4.30;2.78;;;10.00;99.90;;;;;;5092379;28;20043;-67
2022/05/31 03:51:34;;;;;;;5.32;2.90;;;10.10;99.90;;;;;;5092970;28;20044;-67
2022/05/31 03:54:00;;;;;;;5.57;2.38;;;10.00;99.90;;;;;;5057701;28;20417;-68
2022/05/31 03:56:25;;;;;;;2.72;2.38;;;10.10;99.90;;;;;;5074446;28;20413;-67
2022/05/31 03:58:51;;;;;;;5.03;3.05;;;9.90;99.90;;;;;;5074179;28;20394;-65
2022/05/31 04:01:16;;;;;;;6.10;2.55;;;10.20;99.90;;;;;;5074103;28;20406;-67
2022/05/31 04:03:42;;;;;;;3.78;3.38;;;9.90;99.90;;;;;;5074623;28;20086;-68
2022/05/31 04:06:08;;;;;;;4.00;2.90;;;10.10;99.90;;;;;;5092564;28;20043;-69
2022/05/31 04:08:33;;;;;;;3.05;2.75;;;10.00;99.90;;;;;;5092557;28;20510;-68
2022/05/31 04:10:59;;;;;;;4.28;2.55;;;10.00;99.90;;;;;;5091726;28;20127;-68
2022/05/31 04:13:25;;;;;;;3.03;2.38;;;10.10;99.90;;;;;;5092321;28;20525;-68
2022/05/31 04:16:21;;;;;;;4.15;2.70;;;10.10;99.90;;;;;;5073993;28;20047;-67
2022/05/31 04:18:47;;;;;;;3.03;2.72;;;10.00;99.90;;;;;;5073225;28;20048;-68
2022/05/31 04:21:16;;;;;;;4.47;2.70;;;10.10;99.90;;;;;;5091579;28;20402;-68
2022/05/31 04:23:58;;;;;;;4.43;2.30;;;10.30;99.90;;;;;;5092384;28;20111;-67
2022/05/31 04:26:41;;;;;;;4.85;2.85;;;10.30;99.90;;;;;;5074131;28;20036;-68
2022/05/31 04:29:06;;;;;;;5.82;2.83;;;10.30;99.90;;;;;;5073391;28;20024;-65
2022/05/31 04:31:32;;;;;;;5.90;3.53;;;10.20;99.90;;;;;;5056815;28;20539;-68
2022/05/31 04:33:57;;;;;;;3.92;3.05;;;10.10;99.90;;;;;;5092059;28;20107;-68
2022/05/31 04:36:23;;;;;;;5.38;3.22;;;10.30;99.90;;;;;;5073665;28;20573;-67
2022/05/31 04:38:49;;;;;;;3.55;2.95;;;10.20;99.90;;;;;;5073937;28;20040;-67
2022/05/31 04:41:20;;;;;;;3.42;2.65;;;10.30;99.90;;;;;;5091462;28;20481;-67
2022/05/31 04:43:46;;;;;;;5.47;2.80;;;10.60;99.90;;;;;;5092119;28;20036;-67
2022/05/31 04:46:17;;;;;;;7.43;3.28;;;10.40;99.90;;;;;;5091636;28;20085;-67
2022/05/31 04:48:44;;;;;;;5.30;3.28;;;10.30;99.90;;;;;;5073650;28;20052;-67
2022/05/31 04:51:11;;;;;;;5.03;3.05;;;10.30;99.90;;;;;;5072365;28;20044;-67
2022/05/31 04:53:37;;;;;;;3.65;3.15;;;10.40;99.90;;;;;;5091943;28;20079;-68
2022/05/31 04:56:05;;;;;;;8.85;3.60;;;10.20;99.90;;;;;;5091634;28;20048;-68
2022/05/31 04:58:31;;;;;;;3.42;3.13;;;10.50;99.90;;;;;;5091795;28;20043;-67
2022/05/31 05:00:57;;;;;;;3.97;3.33;;;10.40;99.90;;;;;;5072981;28;20498;-67
2022/05/31 05:03:22;;;;;;;4.32;3.00;;;10.50;99.90;;;;;;5091523;28;20078;-67
2022/05/31 05:05:48;;;;;;;3.78;2.92;;;10.60;99.90;;;;;;5091914;28;20032;-67
2022/05/31 05:08:13;;;;;;;5.53;3.15;;;10.70;99.90;;;;;;5073422;28;20051;-68
2022/05/31 05:10:46;;;;;;;7.05;3.40;;;10.60;99.90;;;;;;5090905;28;20043;-67
2022/05/31 05:13:12;;;;;;;4.93;3.30;;;10.60;99.90;;;;;;5091645;28;20115;-68
2022/05/31 05:15:39;;;;;;;4.43;3.30;;;10.50;99.90;;;;;;5073132;28;20508;-68
2022/05/31 05:18:05;;;;;;;3.72;3.08;;;10.60;99.90;;;;;;5091478;28;20039;-67
2022/05/31 05:20:33;;;;;;;3.60;2.97;;;10.80;99.90;;;;;;5072807;28;20051;-67
2022/05/31 05:22:58;;;;;;;3.20;2.90;;;10.60;99.90;;;;;;5091683;28;20123;-67
2022/05/31 05:25:24;;;;;;;5.75;3.13;;;10.80;99.90;;;;;;5091452;28;20115;-67
2022/05/31 05:27:49;;;;;;;3.78;2.95;;;10.90;99.90;;;;;;5073231;28;20101;-68
2022/05/31 05:32:59;;;;;;;4.03;3.10;;;10.80;99.90;;;;;;5091293;28;20105;-68
2022/05/31 05:35:24;;;;;;;5.25;3.90;;;10.90;99.90;;;;;;5091366;28;20071;-67
2022/05/31 05:37:50;;;;;;;6.70;3.40;;;11.00;99.90;;;;;;5073064;28;20121;-67
2022/05/31 05:40:15;;;;;;;6.00;3.10;;;10.90;99.90;;;;;;5090464;28;20051;-67
2022/05/31 05:42:42;;;;;;;3.50;3.05;;;11.00;99.90;;;;;;5075462;28;20043;-67
2022/05/31 05:45:10;;;;;;;7.10;3.40;;;11.00;99.90;;;;;;5094987;28;20120;-68
2022/05/31 05:47:35;;;;;;;4.32;2.95;;;10.90;99.90;;;;;;5095328;28;20076;-67
2022/05/31 05:50:01;;;;;;;7.07;3.25;;;11.00;99.90;;;;;;5074108;28;20462;-68
2022/05/31 05:52:27;;;;;;;4.07;3.08;;;11.30;99.90;;;;;;5075654;28;20126;-68
2022/05/31 05:54:52;;;;;;;3.47;2.90;;;11.20;99.90;;;;;;5075517;28;20048;-68
2022/05/31 05:57:18;;;;;;;5.00;3.17;;;11.40;99.90;;;;;;5075240;28;20115;-69
2022/05/31 05:59:44;;;;;;;5.15;3.33;;;11.20;99.90;;;;;;5074835;28;20421;-67
2022/05/31 06:02:16;;;;;;;5.25;3.25;;;11.50;99.90;;;;;;5075220;28;20034;-67
2022/05/31 06:04:51;;;;;;;3.57;3.23;;;11.60;99.90;;;;;;5075218;28;20523;-68
2022/05/31 06:07:23;;;;;;;3.72;2.90;;;11.60;99.90;;;;;;5075133;28;20043;-67
2022/05/31 06:10:00;;;;;;;5.22;3.08;;;11.90;99.90;;;;;;5090407;28;20047;-68
2022/05/31 06:12:30;;;;;;;4.38;3.00;;;11.80;99.90;;;;;;5072607;28;20121;-67
2022/05/31 06:15:01;;;;;;;5.47;3.10;;;11.90;99.90;;;;;;5075972;28;20075;-68
2022/05/31 06:17:35;;;;;;;5.55;3.30;;;11.60;99.90;;;;;;5076612;28;20406;-67
2022/05/31 06:20:05;;;;;;;4.38;2.75;;;11.80;99.90;;;;;;5093953;28;20036;-68
2022/05/31 06:22:31;;;;;;;3.17;2.50;;;11.80;99.90;;;;;;5094444;28;20112;-68
2022/05/31 06:24:58;;;;;;;4.45;3.40;;;11.80;99.90;;;;;;5094722;28;20119;-66
2022/05/31 06:27:24;;;;;;;7.00;2.97;;;11.90;99.90;;;;;;5094483;28;20390;-66
2022/05/31 06:29:50;;;;;;;3.83;2.97;;;11.90;99.90;;;;;;5075383;28;20076;-66
2022/05/31 06:32:16;;;;;;;3.78;3.10;;;11.80;99.90;;;;;;5067031;28;20075;-66
2022/05/31 06:34:42;;;;;;;6.60;3.40;;;12.10;99.90;;;;;;5097384;28;20047;-66
2022/05/31 06:37:10;;;;;;;3.55;2.70;;;12.20;99.90;;;;;;5093776;28;20090;-66
2022/05/31 06:39:38;;;;;;;6.28;3.15;;;12.20;99.90;;;;;;5089475;28;20094;-66
2022/05/31 06:42:04;;;;;;;4.60;3.17;;;12.30;99.90;;;;;;5056620;28;20506;-66
2022/05/31 06:44:38;;;;;;;7.30;3.55;;;12.50;99.90;;;;;;5086568;28;20500;-67
2022/05/31 06:47:04;;;;;;;4.70;2.75;;;12.50;99.90;;;;;;5095145;22;20043;-75
2022/05/31 06:49:32;;;;;;;7.20;2.85;;;12.80;99.90;;;;;;5093428;28;20426;-75
2022/05/31 06:57:33;;;;;;;6.80;3.25;;;12.90;99.90;;;;;;5076757;28;20040;-74
2022/05/31 06:59:59;;;;;;;4.65;3.28;;;12.80;99.90;;;;;;5062818;28;20078;-73
2022/05/31 07:02:26;;;;;;;4.45;2.88;;;12.50;99.90;;;;;;5083340;28;20402;-75
2022/05/31 07:04:52;;;;;;;3.63;2.60;;;12.70;99.90;;;;;;5062642;28;20048;-75
2022/05/31 07:07:17;;;;;;;3.53;2.72;;;12.70;99.90;;;;;;5068729;28;20054;-75
2022/05/31 07:09:43;;;;;;;5.63;3.33;;;12.70;99.90;;;;;;5064165;28;20040;-75
2022/05/31 07:12:08;;;;;;;8.32;3.55;;;12.70;99.90;;;;;;5082057;28;20050;-75
2022/05/31 07:14:34;;;;;;;5.57;2.90;;;12.90;99.90;;;;;;5083794;28;20040;-75
2022/05/31 07:16:59;;;;;;;5.32;3.55;;;12.90;99.90;;;;;;5059557;28;20039;-75
2022/05/31 07:19:25;;;;;;;4.55;2.78;;;12.70;99.90;;;;;;5062794;28;20033;-75
2022/05/31 07:21:50;;;;;;;5.93;3.08;;;13.00;99.90;;;;;;5060693;28;20032;-75
2022/05/31 07:24:16;;;;;;;5.03;3.17;;;13.30;99.90;;;;;;5056256;28;20046;-75
2022/05/31 07:26:42;;;;;;;7.10;3.13;;;13.20;99.90;;;;;;5061297;28;20111;-75
2022/05/31 07:29:09;;;;;;;3.63;2.90;;;13.60;99.90;;;;;;5061816;28;20485;-75
2022/05/31 07:31:36;;;;;;;3.97;2.97;;;13.90;99.90;;;;;;5067252;28;20040;-75
2022/05/31 07:34:02;;;;;;;3.15;2.70;;;;;;;;;;5063209;28;20561;-75
2022/05/31 07:36:28;;;;;;;6.57;3.40;;;;;;;;;;5047577;28;20059;-75
2022/05/31 07:38:54;;;;;;;9.88;2.78;;;14.10;99.90;;;;;;5076326;28;20641;-75
2022/05/31 07:41:20;;;;;;;5.80;3.28;;;14.30;99.90;;;;;;5061731;28;20040;-74
2022/05/31 07:43:46;;;;;;;6.00;3.60;;;;;;;;;;5070368;28;20603;-74
2022/05/31 07:46:13;;;;;;;6.75;3.13;;;;;;;;;;5065422;28;20093;-76
2022/05/31 07:48:39;;;;;;;6.13;2.88;;;;;;;;;;5044924;28;20048;-75
2022/05/31 07:51:06;;;;;;;4.25;3.05;;;14.60;99.90;;;;;;5082993;28;20036;-75
2022/05/31 07:53:33;;;;;;;3.72;2.47;;;14.50;99.90;;;;;;5062724;28;20040;-75
2022/05/31 07:56:00;;;;;;;4.18;2.90;;;14.60;99.90;;;;;;5074310;28;20037;-76
2022/05/31 07:58:32;;;;;;;3.90;2.60;;;14.90;99.90;;;;;;5079288;28;20043;-76
2022/05/31 08:01:06;;;;;;;5.38;3.20;;;15.10;99.90;;;;;;5064280;28;20039;-75
2022/05/31 08:03:33;;;;;;;5.22;3.30;;;15.20;99.90;;;;;;5042652;28;20098;-74
2022/05/31 08:06:06;;;;;;;5.35;2.67;;;15.50;99.90;;;;;;5078369;28;20528;-75
2022/05/31 08:08:33;;;;;;;5.47;2.53;;;15.80;99.90;;;;;;5071720;28;20134;-74
2022/05/31 08:11:11;;;;;;;5.03;2.85;;;15.70;99.90;;;;;;5048210;28;20072;-75
2022/05/31 08:13:37;;;;;;;5.35;2.95;;;15.70;99.90;;;;;;5065080;28;20035;-74
2022/05/31 08:16:05;;;;;;;3.88;2.50;;;16.00;99.90;;;;;;5061720;28;20501;-75
2022/05/31 08:18:31;;;;;;;5.97;3.05;;;16.00;99.90;;;;;;5076247;28;20193;-75
2022/05/31 08:21:19;;;;;;;5.13;3.70;;;16.10;99.90;;;;;;5088286;28;20043;-75
2022/05/31 08:23:44;;;;;;;7.22;2.80;;;16.20;99.90;;;;;;5078800;28;20032;-75
2022/05/31 08:26:11;;;;;;;4.65;2.45;;;16.40;99.90;;;;;;5061535;28;20043;-74
2022/05/31 08:28:36;;;;;;;7.65;4.07;;;16.40;99.90;;;;;;5074907;28;20037;-74
2022/05/31 08:31:11;;;;;;;4.40;2.53;;;16.40;99.90;;;;;;5081679;28;20040;-74
2022/05/31 08:33:38;;;;;;;7.35;3.28;;;16.60;99.90;;;;;;5059490;28;20036;-71
2022/05/31 08:36:04;;;;;;;4.40;2.92;;;16.80;99.90;;;;;;5058911;28;20043;-74
2022/05/31 08:38:31;;;;;;;6.95;3.10;;;17.00;99.90;;;;;;5064898;28;20036;-75
2022/05/31 08:40:57;;;;;;;5.97;3.72;;;;;;;;;;5079528;28;20059;-75
2022/05/31 08:43:35;;;;;;;4.35;2.78;;;17.00;99.90;;;;;;5082276;28;20068;-76
2022/05/31 08:46:05;;;;;;;10.30;3.60;;;17.00;99.90;;;;;;5062838;28;20055;-75
2022/05/31 08:48:33;;;;;;;5.47;3.25;;;16.90;99.90;;;;;;5064368;28;20109;-74
2022/05/31 08:56:56;;;;;;;6.22;3.00;;;17.50;99.90;;;;;;5080264;28;20127;-75
2022/05/31 08:59:49;;;;;;;6.45;3.42;;;17.00;99.90;;;;;;5077037;28;20358;-75
2022/05/31 09:02:40;;;;;;;4.90;3.20;;;16.80;99.90;;;;;;5026319;28;20110;-75
2022/05/31 09:05:13;;;;;;;11.15;4.18;;;17.00;99.90;;;;;;5075708;28;20032;-75
2022/05/31 09:08:02;;;;;;;6.93;4.37;;;17.00;99.90;;;;;;5060435;28;20083;-76
2022/05/31 09:10:54;;;;;;;7.20;3.72;;;16.80;99.90;;;;;;5052806;28;20072;-75
2022/05/31 09:13:50;;;;;;;7.05;4.57;;;16.70;99.90;;;;;;5060963;28;20039;-75
2022/05/31 09:16:46;;;;;;;6.38;4.22;;;16.40;99.90;;;;;;5060615;28;20051;-75
2022/05/31 09:19:32;;;;;;;7.57;4.25;;;16.60;99.90;;;;;;5071526;28;20040;-74
2022/05/31 09:22:01;;;;;;;8.93;4.28;;;16.40;99.90;;;;;;5069986;28;20039;-75
2022/05/31 09:24:27;;;;;;;7.25;4.18;;;16.50;99.80;;;;;;5065238;28;20040;-75
2022/05/31 09:27:22;;;;;;;5.82;4.05;;;16.40;99.90;;;;;;5072632;28;20107;-76
2022/05/31 09:30:03;;;;;;;7.50;4.18;;;16.50;99.90;;;;;;5054902;28;20535;-75
2022/05/31 09:32:39;;;;;;;15.25;5.50;;;16.40;99.90;;;;;;5076659;28;20047;-75
2022/05/31 09:35:14;;;;;;;6.72;4.40;;;16.30;99.90;;;;;;5046412;28;20045;-76
2022/05/31 09:38:07;;;;;;;9.48;5.10;;;16.40;99.90;;;;;;5053095;28;20666;-75
2022/05/31 09:40:48;;;;;;;10.15;4.90;;;16.40;99.90;;;;;;5071534;28;20035;-75
2022/05/31 09:43:35;;;;;;;7.53;4.45;;;16.40;99.90;;;;;;5086101;28;20036;-76
2022/05/31 09:46:14;;;;;;;9.35;5.20;;;16.40;99.90;;;;;;5087954;28;20554;-76
2022/05/31 09:48:46;;;;;;;10.68;3.53;;;16.50;99.90;;;;;;5062951;28;20040;-75
2022/05/31 09:51:36;;;;;;;5.85;2.60;;;16.60;99.60;;;;;;5070189;28;20074;-76
2022/05/31 09:57:05;;;;;;;9.43;2.67;;;;;;;;;;5063969;28;20051;-75
2022/05/31 09:59:36;;;;;;;6.88;2.60;;;17.10;98.20;;;;;;5069350;28;20048;-76
2022/05/31 10:02:33;;;;;;;7.32;2.95;;;16.80;98.40;;;;;;5079416;28;20115;-75
2022/05/31 10:05:29;;;;;;;4.60;2.80;;;17.00;99.80;;;;;;5068354;28;20634;-76
2022/05/31 10:07:54;;;;;;;5.63;3.67;;;17.00;99.90;;;;;;5058090;28;20121;-76
2022/05/31 10:10:27;;;;;;;8.23;4.40;;;16.90;99.90;;;;;;5096475;28;20039;-75
2022/05/31 10:12:58;;;;;;;7.75;4.05;;;17.20;99.30;;;;;;5095992;28;20119;-75
2022/05/31 10:15:32;;;;;;;8.95;4.93;;;17.10;99.90;;;;;;5076706;28;20044;-75
2022/05/31 10:18:04;;;;;;;8.90;4.45;;;17.30;98.80;;;;;;5058493;28;20115;-74
2022/05/31 10:20:31;;;;;;;8.85;4.20;;;;;;;;;;5076296;28;20040;-74
2022/05/31 10:23:15;;;;;;;9.77;4.50;;;17.50;99.90;;;;;;5076826;28;20043;-74
2022/05/31 10:25:52;;;;;;;9.18;4.60;;;17.50;98.50;;;;;;5058483;28;20558;-75
2022/05/31 10:28:39;;;;;;;10.40;5.65;;;17.50;99.80;;;;;;5079884;28;20028;-75
2022/05/31 10:31:20;;;;;;;7.32;4.40;;;17.40;99.80;;;;;;5062764;28;20060;-75
2022/05/31 10:33:58;;;;;;;9.60;4.55;;;17.50;99.90;;;;;;5055811;28;20551;-75
2022/05/31 10:36:30;;;;;;;6.43;4.63;;;17.70;99.90;;;;;;5073671;28;20049;-76
2022/05/31 10:39:07;;;;;;;5.70;4.50;;;17.70;99.20;;;;;;5073387;28;20041;-75
2022/05/31 10:41:34;;;;;;;8.35;4.32;;;17.50;99.80;;;;;;5055751;28;20082;-75
2022/05/31 10:44:08;;;;;;;5.38;3.70;;;17.60;99.90;;;;;;5055017;28;20040;-75
2022/05/31 10:46:36;;;;;;;6.28;4.07;;;17.60;99.90;;;;;;5055559;28;20033;-76
2022/05/31 10:49:07;;;;;;;6.45;4.47;;;17.40;99.90;;;;;;5054756;28;20150;-75
2022/05/31 10:51:54;;;;;;;7.50;4.50;;;17.50;99.90;;;;;;5072930;28;20036;-76
2022/05/31 10:54:39;;;;;;;11.27;4.97;;;17.40;99.80;;;;;;5073429;28;20075;-75
2022/05/31 10:57:14;;;;;;;7.75;5.07;;;17.30;99.60;;;;;;5055395;28;20078;-75
2022/05/31 10:59:41;;;;;;;8.15;4.07;;;;;;;;;;5052952;28;20541;-76
2022/05/31 11:02:12;;;;;;;4.95;3.40;;;17.40;99.50;;;;;;5057534;28;20047;-75
2022/05/31 11:04:57;;;;;;;5.20;3.42;;;17.50;99.10;;;;;;5078968;28;20040;-76
2022/05/31 11:07:36;;;;;;;6.55;3.70;;;18.10;98.10;;;;;;5075253;28;20047;-75
2022/05/31 11:13:11;;;;;;;5.50;2.53;;;18.30;98.70;;;;;;5080541;28;20048;-75
2022/05/31 11:16:04;;;;;;;3.92;2.35;;;18.30;97.90;;;;;;5070869;28;20074;-74
2022/05/31 11:18:49;;;;;;;;;;;18.40;96.40;;;;;;5054753;28;20049;-75
2022/05/31 11:22:09;;;;;;;6.88;3.20;;;18.40;96.70;;;;;;5053987;28;19927;-75
2022/05/31 11:24:50;;;;;;;5.38;2.90;;;18.60;96.20;;;;;;5063780;28;20126;-75
2022/05/31 11:27:48;;;;;;;5.20;2.90;;;18.30;97.60;;;;;;5095135;28;20032;-75
2022/05/31 11:30:21;;;;;;;8.45;3.03;;;18.20;97.00;;;;;;5036439;28;20107;-75
2022/05/31 11:33:22;;;;;;;5.80;3.22;;;18.00;97.80;;;;;;5079800;28;20153;-75
2022/05/31 11:36:08;;;;;;;5.43;3.10;;;17.80;97.80;;;;;;5025301;28;20052;-75
2022/05/31 11:38:46;;;;;;;4.30;2.88;;;17.90;97.30;;;;;;5063573;28;20085;-75
2022/05/31 11:41:33;;;;;;;5.15;2.75;;;17.80;97.90;;;;;;5081162;28;20055;-75
2022/05/31 11:44:20;;;;;;;6.05;3.88;;;17.60;97.90;;;;;;5081492;28;20048;-75
2022/05/31 11:46:56;;;;;;;7.95;3.67;;;17.70;98.30;;;;;;5090309;28;20143;-75
2022/05/31 11:49:40;;;;;;;6.18;3.83;;;17.60;97.80;;;;;;5065538;28;20032;-76
2022/05/31 11:52:31;;;;;;;7.68;4.25;;;17.60;98.20;;;;;;5051962;28;20055;-76
2022/05/31 11:58:25;;;;;;;5.30;3.65;;;17.80;98.80;;;;;;5070046;28;20044;-76
2022/05/31 12:01:19;;;;;;;6.88;4.57;;;17.90;98.70;;;;;;5078447;28;20554;-76
2022/05/31 12:04:00;;;;;;;8.27;4.28;;;17.70;97.80;;;;;;5083293;28;20047;-76
2022/05/31 12:06:28;;;;;;;5.95;5.18;;;17.70;98.20;;;;;;5052006;28;20136;-76
2022/05/31 12:09:17;;;;;;;9.48;4.88;;;17.60;98.40;;;;;;5037288;28;20517;-76
2022/05/31 12:11:48;;;;;;;10.15;5.30;;;17.40;97.80;;;;;;5063636;28;20043;-76
2022/05/31 12:14:15;;;;;;;5.05;4.03;;;17.70;99.00;;;;;;5069146;28;20047;-76
2022/05/31 12:16:42;;;;;;;7.40;5.03;;;17.60;99.00;;;;;;5054258;28;20032;-76
2022/05/31 12:19:22;;;;;;;6.57;5.35;;;17.60;98.80;;;;;;5054098;28;20040;-76
2022/05/31 12:22:12;;;;;;;9.25;5.20;;;17.60;98.20;;;;;;5053850;28;20047;-76
2022/05/31 12:24:48;;;;;;;13.43;5.45;;;17.50;98.70;;;;;;5071821;28;20103;-76
2022/05/31 12:27:43;;;;;;;7.20;5.05;;;17.30;98.70;;;;;;5058843;28;20047;-76
2022/05/31 12:30:19;;;;;;;8.60;4.57;;;17.20;98.80;;;;;;5049182;28;20057;-76
2022/05/31 12:32:53;;;;;;;8.63;4.43;;;17.20;98.50;;;;;;5053489;28;20040;-76
2022/05/31 12:35:30;;;;;;;5.90;4.00;;;17.00;98.70;;;;;;5053486;28;20086;-76
2022/05/31 12:38:02;;;;;;;8.85;4.43;;;17.20;98.90;;;;;;5053039;28;20049;-76
2022/05/31 12:40:34;;;;;;;11.70;5.15;;;17.10;98.80;;;;;;5070855;28;20124;-76
2022/05/31 12:43:07;;;;;;;7.13;4.28;;;17.10;98.90;;;;;;5071264;28;20520;-76
2022/05/31 12:45:32;;;;;;;6.15;4.65;;;17.10;99.10;;;;;;5053181;28;20458;-76
2022/05/31 12:48:13;;;;;;;6.25;3.70;;;17.10;98.20;;;;;;5076502;22;20147;-69
2022/05/31 12:50:57;;;;;;;7.30;3.92;;;17.20;97.80;;;;;;5070399;28;20032;-69
2022/05/31 12:53:38;;;;;;;6.50;3.58;;;17.30;98.30;;;;;;5036853;28;20036;-70
2022/05/31 12:56:06;;;;;;;6.78;2.80;;;17.30;99.30;;;;;;5052760;28;20063;-71
2022/05/31 12:58:49;;;;;;;10.43;3.83;;;17.20;98.30;;;;;;5070099;28;20040;-69
2022/05/31 13:01:17;;;;;;;9.10;3.80;;;17.30;98.10;;;;;;5049812;28;20032;-68
2022/05/31 13:03:43;;;;;;;7.85;3.47;;;17.30;97.30;;;;;;5052872;28;20053;-69
2022/05/31 13:06:28;;;;;;;8.15;4.10;;;17.20;98.00;;;;;;5052602;28;20071;-69
2022/05/31 13:08:59;;;;;;;7.35;3.83;;;17.30;97.40;;;;;;5052447;28;20106;-69
2022/05/31 13:20:17;;;;;;;7.13;3.38;;;17.30;97.10;;;;;;5069202;28;20049;-71
2022/05/31 13:22:47;;;;;;;8.40;3.45;;;17.40;97.50;;;;;;5070867;28;20040;-70
2022/05/31 13:25:32;;;;;;;10.05;3.88;;;18.90;98.40;;;;;;5070711;28;20533;-70
2022/05/31 13:28:02;;;;;;;5.95;3.30;;;17.80;98.70;;;;;;5034773;28;20071;-70
2022/05/31 13:30:31;;;;;;;10.68;4.43;;;18.20;97.90;;;;;;5068861;28;20082;-70
2022/05/31 13:32:58;;;;;;;7.97;3.97;;;17.50;96.50;;;;;;5052139;28;20501;-70
2022/05/31 13:35:27;;;;;;;8.38;3.63;;;18.00;97.70;;;;;;5042108;28;20127;-70
2022/05/31 13:38:00;;;;;;;7.40;3.67;;;17.90;97.60;;;;;;5071870;28;20060;-70
2022/05/31 13:40:30;;;;;;;;;;;17.70;96.10;;;;;;5050138;28;20079;-69
2022/05/31 13:42:57;;;;;;;7.80;3.75;;;17.90;96.80;;;;;;5069681;28;19916;-70
2022/05/31 13:45:26;;;;;;;7.40;3.35;;;17.90;98.10;;;;;;5051971;28;20040;-69
2022/05/31 13:48:00;;;;;;;7.50;4.10;;;18.10;97.40;;;;;;5051322;28;20432;-72